Time;durP1;ratioP1;P1;durP2;ratioP2;P2;SDS_P1;SDS_P2;PMS_P1;PMS_P2;Temp;Humidity;BMP_temperature;BMP_pressure;BME280_temperature;BME280_humidity;BME280_pressure;Samples;Min_cycle;Max_cycle;Signal;HPM_P1;HPM_P2
2021/03/20 00:01:00;;;;;;;2.77;2.07;;;3.40;99.90;;;;;;4953990;28;20833;-68
2021/03/20 00:03:25;;;;;;;2.40;1.73;;;3.40;99.90;;;;;;4972707;28;20495;-69
2021/03/20 00:05:52;;;;;;;2.30;1.80;;;3.40;99.90;;;;;;4957033;28;20462;-69
2021/03/20 00:08:21;;;;;;;1.87;1.63;;;3.40;99.90;;;;;;4956415;28;20238;-68
2021/03/20 00:10:47;;;;;;;2.73;2.50;;;3.50;99.90;;;;;;4969535;28;20450;-69
2021/03/20 00:13:16;;;;;;;2.60;1.97;;;3.50;99.90;;;;;;4985460;28;20553;-69
2021/03/20 00:15:42;;;;;;;3.23;2.33;;;3.50;99.90;;;;;;4957838;28;20463;-69
2021/03/20 00:18:08;;;;;;;2.30;1.87;;;3.40;99.90;;;;;;4966070;28;20466;-69
2021/03/20 00:20:38;;;;;;;3.13;2.30;;;3.40;99.90;;;;;;4965862;28;20254;-68
2021/03/20 00:23:04;;;;;;;2.37;2.17;;;3.40;99.90;;;;;;4935644;29;20562;-68
2021/03/20 00:25:30;;;;;;;2.03;1.93;;;3.40;99.90;;;;;;4941914;28;20460;-68
2021/03/20 00:27:56;;;;;;;3.27;1.80;;;3.40;99.90;;;;;;4968314;28;20502;-69
2021/03/20 00:30:22;;;;;;;2.13;1.93;;;3.40;99.90;;;;;;4939978;28;20620;-69
2021/03/20 00:32:48;;;;;;;4.20;1.97;;;3.50;99.90;;;;;;4966392;28;20472;-69
2021/03/20 00:35:15;;;;;;;2.47;2.27;;;3.50;99.90;;;;;;4957822;28;20223;-67
2021/03/20 00:37:41;;;;;;;4.50;2.60;;;3.50;99.90;;;;;;4990477;28;20678;-68
2021/03/20 00:40:10;;;;;;;3.27;2.03;;;3.50;99.90;;;;;;4995150;28;20473;-69
2021/03/20 00:42:36;;;;;;;2.90;2.10;;;3.50;99.90;;;;;;4977526;28;20472;-67
2021/03/20 00:45:08;;;;;;;3.27;1.97;;;3.50;99.90;;;;;;4983835;28;20462;-69
2021/03/20 00:47:34;;;;;;;2.67;2.33;;;3.50;99.90;;;;;;4949256;28;20461;-68
2021/03/20 00:50:00;;;;;;;2.20;2.00;;;3.60;99.90;;;;;;4971152;28;20481;-67
2021/03/20 00:52:26;;;;;;;2.63;2.40;;;3.60;99.90;;;;;;4989318;28;22412;-66
2021/03/20 00:54:52;;;;;;;4.67;2.50;;;3.60;99.90;;;;;;4986889;28;20271;-68
2021/03/20 00:57:18;;;;;;;4.33;2.47;;;3.60;99.90;;;;;;4973254;28;20678;-68
2021/03/20 00:59:43;;;;;;;3.83;2.40;;;3.60;99.90;;;;;;4963510;28;20222;-69
2021/03/20 01:02:09;;;;;;;4.50;2.10;;;3.60;99.90;;;;;;4974348;28;20227;-69
2021/03/20 01:04:35;;;;;;;4.13;2.63;;;3.60;99.90;;;;;;4972174;28;20230;-66
2021/03/20 01:07:00;;;;;;;3.03;2.40;;;3.60;99.90;;;;;;4973444;28;20226;-66
2021/03/20 01:09:26;;;;;;;2.10;1.80;;;3.60;99.90;;;;;;4956656;28;20720;-66
2021/03/20 01:11:52;;;;;;;5.63;2.77;;;3.60;99.90;;;;;;4962072;28;20222;-66
2021/03/20 01:14:18;;;;;;;2.17;2.00;;;3.60;99.90;;;;;;4958074;28;20471;-66
2021/03/20 01:16:43;;;;;;;2.90;2.60;;;3.60;99.90;;;;;;4981284;28;20231;-66
2021/03/20 01:19:09;;;;;;;2.33;2.03;;;3.60;99.90;;;;;;4974285;28;20230;-69
2021/03/20 01:21:35;;;;;;;3.37;2.30;;;3.60;99.90;;;;;;4963057;28;20223;-67
2021/03/20 01:24:00;;;;;;;2.80;2.27;;;3.60;99.90;;;;;;4976436;28;20226;-67
2021/03/20 01:26:26;;;;;;;3.50;2.47;;;3.60;99.90;;;;;;4959982;28;20280;-68
2021/03/20 01:28:52;;;;;;;3.00;2.13;;;3.60;99.90;;;;;;4976106;28;20255;-69
2021/03/20 01:31:17;;;;;;;2.33;2.10;;;3.60;99.90;;;;;;4959874;28;20222;-68
2021/03/20 01:33:43;;;;;;;7.57;2.90;;;3.60;99.90;;;;;;4975609;28;20234;-67
2021/03/20 01:36:09;;;;;;;3.23;2.50;;;3.60;99.90;;;;;;4960078;28;20324;-67
2021/03/20 01:38:35;;;;;;;5.53;3.10;;;3.60;99.90;;;;;;4991667;28;20457;-67
2021/03/20 01:41:08;;;;;;;3.07;2.20;;;3.50;99.90;;;;;;4996477;28;20954;-67
2021/03/20 01:43:35;;;;;;;2.50;1.67;;;3.50;99.90;;;;;;4991950;28;20254;-68
2021/03/20 01:46:54;;;;;;;3.70;2.30;;;3.50;99.90;;;;;;4991527;28;20457;-67
2021/03/20 01:49:20;;;;;;;3.37;2.20;;;3.50;99.90;;;;;;4916514;29;20468;-68
2021/03/20 01:51:55;;;;;;;3.40;2.40;;;3.50;99.90;;;;;;4948164;28;20462;-66
2021/03/20 01:54:22;;;;;;;2.40;2.20;;;3.40;99.90;;;;;;4988360;28;20254;-67
2021/03/20 01:56:49;;;;;;;2.60;2.23;;;3.40;99.90;;;;;;4989098;28;20509;-67
2021/03/20 01:59:15;;;;;;;6.23;3.93;;;3.40;99.90;;;;;;4988690;28;20542;-68
2021/03/20 02:01:41;;;;;;;29.87;12.33;;;3.40;99.90;;;;;;4970035;28;20523;-68
2021/03/20 02:04:07;;;;;;;34.83;13.97;;;3.30;99.90;;;;;;4961531;28;21069;-68
2021/03/20 02:06:34;;;;;;;28.47;10.87;;;3.30;99.90;;;;;;4968693;28;20262;-68
2021/03/20 02:09:05;;;;;;;13.43;7.23;;;3.30;99.90;;;;;;4953178;29;20224;-68
2021/03/20 02:11:45;;;;;;;10.37;4.77;;;3.30;99.90;;;;;;4962253;28;20462;-68
2021/03/20 02:14:30;;;;;;;4.87;3.80;;;3.20;99.90;;;;;;4987355;28;20466;-67
2021/03/20 02:17:23;;;;;;;4.83;3.60;;;3.30;99.90;;;;;;4985705;28;20461;-67
2021/03/20 02:19:59;;;;;;;3.97;2.70;;;3.30;99.90;;;;;;4973059;28;20455;-67
2021/03/20 02:22:36;;;;;;;2.80;2.53;;;3.30;99.90;;;;;;4985997;28;21020;-67
2021/03/20 02:25:31;;;;;;;3.33;2.20;;;3.30;99.90;;;;;;4990143;28;20483;-68
2021/03/20 02:28:15;;;;;;;3.33;2.43;;;3.30;99.90;;;;;;4992074;28;20596;-67
2021/03/20 02:31:03;;;;;;;3.17;2.87;;;3.30;99.90;;;;;;4990677;28;20444;-67
2021/03/20 02:33:58;;;;;;;1.70;1.60;;;3.30;99.90;;;;;;4990679;28;20465;-68
2021/03/20 02:36:47;;;;;;;1.97;1.77;;;3.30;99.90;;;;;;4974202;28;20465;-68
2021/03/20 02:39:17;;;;;;;2.13;1.90;;;3.30;99.90;;;;;;4988462;28;20462;-68
2021/03/20 02:41:48;;;;;;;2.67;2.00;;;3.30;99.90;;;;;;4994927;28;20520;-68
2021/03/20 02:44:31;;;;;;;3.23;2.60;;;3.30;99.90;;;;;;4974858;28;20467;-67
2021/03/20 02:47:00;;;;;;;4.17;2.50;;;3.30;99.90;;;;;;4990404;28;20469;-67
2021/03/20 02:49:32;;;;;;;3.40;2.80;;;3.30;99.90;;;;;;4990105;28;20457;-67
2021/03/20 02:52:19;;;;;;;2.73;2.50;;;3.20;99.90;;;;;;4974836;28;20536;-68
2021/03/20 02:55:28;;;;;;;2.50;2.30;;;3.20;99.90;;;;;;4990202;28;20462;-68
2021/03/20 02:58:01;;;;;;;4.97;1.87;;;3.30;99.90;;;;;;4926181;29;20454;-68
2021/03/20 03:00:56;;;;;;;2.80;2.07;;;3.30;99.90;;;;;;4980302;28;20484;-68
2021/03/20 03:03:25;;;;;;;3.77;1.83;;;3.30;99.90;;;;;;4965135;28;20492;-68
2021/03/20 03:06:11;;;;;;;3.13;2.57;;;3.30;99.90;;;;;;4974862;28;20477;-67
2021/03/20 03:08:46;;;;;;;3.17;2.53;;;3.30;99.90;;;;;;4989980;28;20815;-67
2021/03/20 03:11:31;;;;;;;2.20;2.00;;;3.30;99.90;;;;;;4982064;28;20456;-67
2021/03/20 03:14:04;;;;;;;2.10;1.90;;;3.30;99.90;;;;;;4982625;28;20475;-68
2021/03/20 03:16:39;;;;;;;2.77;2.27;;;3.30;99.90;;;;;;4961000;28;20459;-68
2021/03/20 03:19:13;;;;;;;2.50;2.10;;;3.30;99.90;;;;;;4956252;28;20542;-67
2021/03/20 03:21:44;;;;;;;3.47;2.57;;;3.30;99.90;;;;;;4952432;29;20455;-67
2021/03/20 03:24:15;;;;;;;4.50;3.07;;;3.30;99.90;;;;;;4951719;28;20463;-68
2021/03/20 03:26:44;;;;;;;3.67;2.90;;;3.30;99.90;;;;;;4999625;28;21117;-68
2021/03/20 03:29:13;;;;;;;6.17;4.07;;;3.30;99.90;;;;;;4993351;28;20469;-68
2021/03/20 03:32:04;;;;;;;3.87;3.50;;;3.30;99.90;;;;;;4976675;28;20437;-68
2021/03/20 03:34:45;;;;;;;4.83;3.30;;;3.30;99.90;;;;;;4994010;28;20476;-69
2021/03/20 03:37:18;;;;;;;4.87;2.83;;;3.20;99.90;;;;;;4997389;28;20497;-68
2021/03/20 03:39:51;;;;;;;6.30;4.50;;;3.20;99.90;;;;;;4986264;28;20926;-67
2021/03/20 03:42:19;;;;;;;9.37;4.57;;;3.20;99.90;;;;;;4986473;28;20984;-68
2021/03/20 03:44:46;;;;;;;7.77;4.07;;;3.20;99.90;;;;;;4961446;28;21077;-68
2021/03/20 03:47:15;;;;;;;5.40;2.77;;;3.10;99.90;;;;;;4971423;28;20473;-67
2021/03/20 03:49:41;;;;;;;3.73;2.97;;;3.10;99.90;;;;;;4973045;28;20511;-67
2021/03/20 03:52:08;;;;;;;4.00;2.60;;;3.10;99.90;;;;;;4973299;28;20453;-67
2021/03/20 03:54:34;;;;;;;6.70;2.50;;;3.10;99.90;;;;;;4972884;28;20477;-66
2021/03/20 04:01:15;;;;;;;2.67;2.27;;;3.00;99.90;;;;;;4991202;28;20979;-67
2021/03/20 04:03:56;;;;;;;2.33;1.50;;;3.00;99.90;;;;;;4961508;28;20457;-67
2021/03/20 04:06:43;;;;;;;3.23;2.50;;;3.00;99.90;;;;;;4988759;28;20479;-67
2021/03/20 04:09:33;;;;;;;4.53;2.80;;;3.10;99.90;;;;;;4990294;28;20449;-68
2021/03/20 04:12:23;;;;;;;2.47;2.03;;;3.10;99.90;;;;;;4983198;28;21028;-67
2021/03/20 04:15:17;;;;;;;3.33;2.70;;;3.10;99.90;;;;;;4967164;28;20468;-67
2021/03/20 04:17:52;;;;;;;2.60;2.40;;;3.10;99.90;;;;;;4968372;28;20462;-67
2021/03/20 04:20:22;;;;;;;2.50;2.27;;;3.10;99.90;;;;;;4990799;28;20441;-68
2021/03/20 04:23:03;;;;;;;2.77;2.57;;;3.10;99.90;;;;;;4984534;28;20455;-68
2021/03/20 04:25:37;;;;;;;2.47;2.10;;;3.10;99.90;;;;;;4967203;28;20493;-67
2021/03/20 04:28:18;;;;;;;3.37;2.50;;;3.10;99.90;;;;;;4967695;28;20492;-67
2021/03/20 04:31:15;;;;;;;5.80;2.60;;;3.10;99.90;;;;;;4979740;28;20472;-67
2021/03/20 04:33:56;;;;;;;5.23;2.70;;;3.10;99.90;;;;;;4963284;28;20457;-68
2021/03/20 04:36:30;;;;;;;2.97;2.03;;;3.10;99.90;;;;;;4988873;28;20468;-67
2021/03/20 04:38:57;;;;;;;3.10;2.80;;;3.10;99.90;;;;;;4972820;28;20468;-67
2021/03/20 04:41:25;;;;;;;4.40;2.80;;;3.10;99.90;;;;;;4974090;28;20479;-68
2021/03/20 04:43:51;;;;;;;2.70;2.50;;;3.10;99.90;;;;;;4967049;28;20805;-67
2021/03/20 04:46:23;;;;;;;2.10;2.00;;;3.10;99.90;;;;;;4956385;28;20984;-67
2021/03/20 04:49:16;;;;;;;5.73;2.53;;;3.10;99.90;;;;;;4988593;28;20462;-67
2021/03/20 04:51:47;;;;;;;2.37;2.17;;;3.00;99.90;;;;;;4962792;28;20822;-67
2021/03/20 04:54:25;;;;;;;2.13;1.93;;;3.00;99.90;;;;;;4953978;28;20466;-68
2021/03/20 04:56:55;;;;;;;2.13;1.90;;;3.00;99.90;;;;;;4986311;28;21036;-66
2021/03/20 04:59:30;;;;;;;2.90;1.93;;;3.10;99.90;;;;;;4969199;28;20885;-67
2021/03/20 05:02:01;;;;;;;4.50;2.70;;;3.10;99.90;;;;;;4988373;28;20542;-68
2021/03/20 05:04:38;;;;;;;5.27;2.53;;;3.00;99.90;;;;;;4966041;28;20481;-67
2021/03/20 05:07:04;;;;;;;3.80;2.90;;;3.10;99.90;;;;;;4972734;28;20496;-68
2021/03/20 05:09:30;;;;;;;4.70;2.63;;;3.10;99.90;;;;;;5006407;28;20458;-68
2021/03/20 05:11:58;;;;;;;4.40;2.03;;;3.10;99.90;;;;;;4987077;28;20230;-68
2021/03/20 05:14:42;;;;;;;4.13;2.90;;;3.10;99.90;;;;;;4969601;28;20489;-67
2021/03/20 05:17:15;;;;;;;6.20;2.90;;;3.10;99.90;;;;;;4972126;28;20878;-67
2021/03/20 05:19:41;;;;;;;4.03;2.43;;;3.10;99.90;;;;;;4948205;28;20450;-67
2021/03/20 05:22:12;;;;;;;6.33;3.73;;;3.10;99.90;;;;;;4973188;28;20455;-67
2021/03/20 05:24:38;;;;;;;4.90;2.63;;;3.10;99.90;;;;;;4959827;28;20458;-67
2021/03/20 05:27:07;;;;;;;6.20;2.80;;;3.00;99.90;;;;;;4958739;28;20480;-66
2021/03/20 05:29:33;;;;;;;5.23;2.70;;;3.00;99.90;;;;;;4980201;28;20541;-67
2021/03/20 05:32:00;;;;;;;3.43;2.57;;;3.00;99.90;;;;;;4977038;28;20546;-69
2021/03/20 05:34:25;;;;;;;3.87;2.40;;;3.00;99.90;;;;;;4976911;28;20388;-67
2021/03/20 05:36:52;;;;;;;3.57;1.77;;;3.00;99.90;;;;;;4973999;28;20647;-67
2021/03/20 05:39:19;;;;;;;3.73;2.63;;;3.00;99.90;;;;;;4956370;28;20243;-67
2021/03/20 05:42:06;;;;;;;2.57;2.17;;;3.00;99.90;;;;;;4975875;28;20464;-68
2021/03/20 05:44:46;;;;;;;3.53;2.43;;;3.00;99.90;;;;;;4992783;28;20489;-67
2021/03/20 05:47:57;;;;;;;3.73;2.20;;;3.00;99.90;;;;;;4992368;28;20875;-67
2021/03/20 05:50:41;;;;;;;1.93;1.83;;;3.00;99.90;;;;;;4963559;28;20533;-68
2021/03/20 05:53:44;;;;;;;6.07;3.10;;;3.00;99.90;;;;;;4991437;28;20473;-68
2021/03/20 05:56:29;;;;;;;2.87;2.63;;;3.00;99.90;;;;;;4991632;28;20545;-68
2021/03/20 05:59:14;;;;;;;3.50;2.20;;;3.00;99.90;;;;;;4991564;28;20453;-68
2021/03/20 06:02:00;;;;;;;2.43;2.10;;;3.00;99.90;;;;;;4987839;28;20481;-68
2021/03/20 06:04:41;;;;;;;4.20;2.70;;;3.00;99.90;;;;;;4990104;28;20492;-67
2021/03/20 06:07:36;;;;;;;4.40;2.23;;;3.00;99.90;;;;;;4992026;28;20511;-67
2021/03/20 06:10:23;;;;;;;2.17;2.00;;;3.00;99.90;;;;;;4991285;28;20889;-67
2021/03/20 06:13:13;;;;;;;2.73;2.30;;;3.00;99.90;;;;;;4987994;28;20498;-67
2021/03/20 06:16:23;;;;;;;4.13;3.00;;;3.00;99.90;;;;;;4974909;28;20507;-67
2021/03/20 06:19:22;;;;;;;4.30;2.50;;;3.00;99.90;;;;;;4991178;28;20464;-67
2021/03/20 06:21:54;;;;;;;2.73;2.27;;;3.00;99.90;;;;;;4990213;28;20446;-67
2021/03/20 06:24:48;;;;;;;8.20;2.60;;;3.00;99.90;;;;;;4990857;28;20492;-69
2021/03/20 06:27:22;;;;;;;4.73;2.73;;;3.00;99.90;;;;;;4990602;28;20457;-67
2021/03/20 06:30:15;;;;;;;3.60;2.57;;;3.00;99.90;;;;;;4990768;28;20457;-68
2021/03/20 06:32:47;;;;;;;7.37;4.47;;;3.00;99.90;;;;;;4999132;28;20514;-67
2021/03/20 06:35:16;;;;;;;7.57;5.00;;;3.00;99.90;;;;;;4993888;28;20568;-67
2021/03/20 06:37:48;;;;;;;9.67;4.30;;;3.00;99.90;;;;;;4990069;28;20461;-68
2021/03/20 06:40:32;;;;;;;10.33;3.83;;;3.00;99.90;;;;;;4990970;28;21058;-67
2021/03/20 06:42:59;;;;;;;5.30;3.60;;;3.00;99.90;;;;;;4990958;28;20487;-67
2021/03/20 06:45:29;;;;;;;4.17;3.20;;;3.00;99.90;;;;;;4974622;28;20449;-68
2021/03/20 06:48:20;;;;;;;4.67;2.97;;;3.00;99.90;;;;;;4974691;28;20465;-68
2021/03/20 06:50:52;;;;;;;6.67;3.47;;;3.00;99.90;;;;;;4935986;29;20451;-67
2021/03/20 06:53:24;;;;;;;5.13;3.67;;;3.00;99.90;;;;;;4966828;28;20506;-67
2021/03/20 06:55:51;;;;;;;7.40;4.53;;;3.00;99.90;;;;;;4952318;29;20461;-68
2021/03/20 06:58:25;;;;;;;9.30;4.73;;;2.90;99.90;;;;;;4951634;29;20490;-67
2021/03/20 07:00:51;;;;;;;8.67;5.30;;;2.90;99.90;;;;;;4951578;29;20466;-68
2021/03/20 07:03:59;;;;;;;18.80;8.97;;;2.90;99.90;;;;;;4965484;28;20923;-67
2021/03/20 07:06:40;;;;;;;20.40;9.50;;;2.80;99.90;;;;;;4942468;28;20294;-67
2021/03/20 07:09:07;;;;;;;17.73;9.60;;;2.90;99.90;;;;;;4967852;28;20466;-67
2021/03/20 07:11:41;;;;;;;22.57;12.20;;;2.90;99.90;;;;;;4954061;28;20513;-68
2021/03/20 07:14:11;;;;;;;16.93;8.40;;;2.90;99.90;;;;;;4978764;28;20489;-67
2021/03/20 07:16:53;;;;;;;12.23;7.47;;;2.90;99.90;;;;;;4945683;28;20454;-68
2021/03/20 07:19:19;;;;;;;19.43;9.50;;;2.80;99.90;;;;;;4969512;28;20463;-67
2021/03/20 07:22:02;;;;;;;43.30;18.73;;;2.90;99.90;;;;;;4970568;28;20529;-67
2021/03/20 07:24:46;;;;;;;60.67;26.27;;;2.90;99.90;;;;;;4954232;28;20297;-66
2021/03/20 07:27:12;;;;;;;32.63;18.03;;;2.80;99.90;;;;;;4969344;28;20470;-67
2021/03/20 07:29:40;;;;;;;23.07;14.33;;;2.90;99.90;;;;;;4968701;28;20496;-67
2021/03/20 07:32:07;;;;;;;13.47;10.17;;;2.80;99.90;;;;;;4970648;28;20255;-67
2021/03/20 07:34:35;;;;;;;5.43;4.80;;;2.80;99.90;;;;;;4953668;28;20477;-67
2021/03/20 07:37:08;;;;;;;9.87;5.77;;;2.80;99.90;;;;;;4954494;28;20463;-68
2021/03/20 07:39:48;;;;;;;10.50;6.63;;;2.90;99.90;;;;;;4968203;28;20470;-67
2021/03/20 07:42:29;;;;;;;13.17;7.27;;;3.00;99.90;;;;;;4953903;28;21015;-66
2021/03/20 07:44:57;;;;;;;8.63;6.33;;;3.00;99.90;;;;;;4975873;28;20558;-66
2021/03/20 07:47:27;;;;;;;10.30;4.73;;;3.00;99.90;;;;;;4973986;28;20459;-66
2021/03/20 07:50:22;;;;;;;6.97;5.20;;;3.10;99.90;;;;;;4986937;28;20787;-66
2021/03/20 07:53:17;;;;;;;5.57;4.00;;;3.10;99.90;;;;;;4975069;28;20473;-67
2021/03/20 07:56:05;;;;;;;5.43;4.50;;;3.20;99.90;;;;;;4963431;28;20465;-69
2021/03/20 07:58:40;;;;;;;9.93;6.00;;;3.20;99.90;;;;;;4971911;28;20532;-67
2021/03/20 08:01:18;;;;;;;7.70;5.87;;;3.30;99.90;;;;;;4972440;28;20524;-67
2021/03/20 08:03:54;;;;;;;5.43;4.83;;;3.30;99.90;;;;;;4989984;28;20457;-66
2021/03/20 08:06:22;;;;;;;4.07;3.70;;;3.30;99.90;;;;;;4988406;28;21034;-66
2021/03/20 08:08:48;;;;;;;5.57;4.17;;;3.30;99.90;;;;;;4990343;28;20450;-66
2021/03/20 08:11:27;;;;;;;4.27;3.03;;;3.30;99.90;;;;;;4990791;28;20497;-65
2021/03/20 08:13:56;;;;;;;4.93;3.90;;;3.40;99.90;;;;;;4963844;28;20462;-66
2021/03/20 08:16:22;;;;;;;7.23;2.67;;;3.40;99.90;;;;;;4991224;28;20824;-66
2021/03/20 08:18:51;;;;;;;3.17;2.00;;;3.50;99.90;;;;;;4989322;28;20535;-67
2021/03/20 08:21:26;;;;;;;4.40;2.43;;;3.50;99.90;;;;;;4968349;28;20218;-67
2021/03/20 08:24:10;;;;;;;2.97;1.93;;;3.50;99.90;;;;;;4979230;28;20458;-67
2021/03/20 08:26:54;;;;;;;4.00;2.17;;;3.60;99.90;;;;;;4976051;28;20901;-67
2021/03/20 08:29:39;;;;;;;2.60;2.40;;;3.60;99.90;;;;;;4976248;28;20477;-65
2021/03/20 08:32:29;;;;;;;2.73;1.97;;;3.60;99.90;;;;;;4965454;28;20458;-66
2021/03/20 08:35:04;;;;;;;2.00;1.80;;;3.60;99.90;;;;;;4973675;28;20461;-66
2021/03/20 08:37:34;;;;;;;1.80;1.70;;;3.70;99.90;;;;;;4983926;28;20458;-66
2021/03/20 08:40:03;;;;;;;1.90;1.60;;;3.80;99.90;;;;;;4984140;28;20450;-67
2021/03/20 08:42:41;;;;;;;2.37;1.60;;;3.80;99.90;;;;;;4983848;28;20470;-66
2021/03/20 08:45:38;;;;;;;1.97;1.80;;;3.80;99.90;;;;;;4970688;28;20564;-68
2021/03/20 08:48:03;;;;;;;1.23;1.13;;;3.90;99.90;;;;;;4978466;28;20458;-65
2021/03/20 08:50:50;;;;;;;2.93;1.60;;;4.00;99.90;;;;;;4979356;28;20516;-69
2021/03/20 08:53:34;;;;;;;2.57;2.40;;;4.00;99.90;;;;;;4984024;28;20234;-68
2021/03/20 08:56:37;;;;;;;4.13;3.70;;;4.00;99.90;;;;;;4953656;28;20520;-69
2021/03/20 08:59:16;;;;;;;2.57;2.37;;;4.10;99.90;;;;;;4989890;28;20461;-70
2021/03/20 09:01:49;;;;;;;1.90;1.80;;;4.10;99.90;;;;;;4990846;28;20444;-71
2021/03/20 09:04:19;;;;;;;1.50;1.40;;;4.10;99.90;;;;;;4972295;28;20457;-71
2021/03/20 09:06:56;;;;;;;1.80;1.70;;;4.10;99.90;;;;;;4973621;28;20529;-68
2021/03/20 09:09:28;;;;;;;2.07;1.87;;;4.10;99.90;;;;;;4973275;28;20486;-68
2021/03/20 09:12:17;;;;;;;2.00;1.90;;;4.00;99.90;;;;;;4990106;28;20457;-68
2021/03/20 09:14:46;;;;;;;1.37;1.30;;;4.10;99.90;;;;;;4980468;28;20985;-68
2021/03/20 09:17:14;;;;;;;2.90;1.20;;;4.10;99.90;;;;;;4946460;28;20545;-67
2021/03/20 09:19:52;;;;;;;2.60;1.77;;;4.10;99.90;;;;;;4989885;28;20877;-68
2021/03/20 09:22:29;;;;;;;1.37;1.27;;;4.20;99.90;;;;;;4974030;28;20493;-66
2021/03/20 09:25:10;;;;;;;3.13;1.50;;;4.30;99.90;;;;;;4990429;28;20470;-68
2021/03/20 09:28:01;;;;;;;1.30;1.20;;;4.40;99.90;;;;;;4989130;28;20480;-68
2021/03/20 09:30:48;;;;;;;1.10;1.00;;;4.40;99.90;;;;;;4989404;28;20466;-69
2021/03/20 09:33:19;;;;;;;4.07;1.13;;;4.40;99.90;;;;;;4992289;28;20508;-70
2021/03/20 09:35:49;;;;;;;1.20;1.07;;;4.50;99.90;;;;;;4999214;28;20450;-68
2021/03/20 09:38:34;;;;;;;5.33;1.53;;;4.60;99.90;;;;;;4967478;28;20455;-68
2021/03/20 09:41:06;;;;;;;2.10;1.37;;;4.60;99.90;;;;;;4981794;28;20488;-67
2021/03/20 09:43:39;;;;;;;2.83;1.60;;;4.60;99.90;;;;;;4971960;28;20477;-69
2021/03/20 09:46:38;;;;;;;1.60;1.50;;;4.60;99.90;;;;;;4989234;28;20525;-67
2021/03/20 09:49:07;;;;;;;2.73;1.23;;;4.60;99.90;;;;;;4959632;28;20466;-65
2021/03/20 09:51:48;;;;;;;2.83;1.40;;;4.60;99.90;;;;;;5000902;28;20871;-68
2021/03/20 09:54:29;;;;;;;1.70;1.20;;;4.60;99.90;;;;;;4966269;28;20586;-66
2021/03/20 09:56:56;;;;;;;1.33;0.97;;;4.70;99.90;;;;;;4953498;28;20556;-69
2021/03/20 09:59:42;;;;;;;3.30;1.50;;;4.80;99.90;;;;;;4969359;28;20471;-67
2021/03/20 10:02:11;;;;;;;3.23;2.00;;;4.80;99.90;;;;;;4967476;28;20512;-69
2021/03/20 10:04:55;;;;;;;3.20;2.00;;;4.80;99.90;;;;;;4986039;28;20442;-66
2021/03/20 10:07:25;;;;;;;3.33;2.00;;;4.90;99.90;;;;;;4971675;28;20458;-68
2021/03/20 10:10:09;;;;;;;2.00;1.80;;;5.00;99.90;;;;;;4989634;28;20472;-66
2021/03/20 10:12:44;;;;;;;2.93;1.80;;;5.00;99.90;;;;;;4974866;28;20458;-69
2021/03/20 10:15:12;;;;;;;5.63;1.70;;;5.10;99.90;;;;;;4970804;28;20473;-69
2021/03/20 10:18:20;;;;;;;1.57;1.27;;;5.30;99.90;;;;;;4986475;28;20926;-69
2021/03/20 10:20:51;;;;;;;1.90;1.37;;;5.40;99.90;;;;;;4978783;28;20528;-70
2021/03/20 10:23:45;;;;;;;1.60;1.20;;;5.60;99.90;;;;;;4969441;28;20480;-70
2021/03/20 10:26:42;;;;;;;2.17;1.17;;;5.70;99.90;;;;;;4969985;28;20446;-70
2021/03/20 10:29:17;;;;;;;6.30;2.10;;;5.80;99.90;;;;;;4936383;28;20478;-70
2021/03/20 10:31:45;;;;;;;2.20;1.63;;;5.80;99.90;;;;;;4981109;28;20466;-70
2021/03/20 10:34:18;;;;;;;2.83;1.57;;;5.90;99.90;;;;;;4984219;28;20482;-68
2021/03/20 10:36:47;;;;;;;2.70;2.27;;;6.00;99.90;;;;;;4964618;28;20470;-70
2021/03/20 10:39:41;;;;;;;2.73;2.00;;;5.90;99.90;;;;;;4976621;28;20459;-70
2021/03/20 10:42:30;;;;;;;1.80;1.47;;;5.90;99.90;;;;;;4985768;28;20465;-70
2021/03/20 10:45:05;;;;;;;1.90;1.47;;;6.00;99.90;;;;;;4958574;28;20973;-68
2021/03/20 10:47:34;;;;;;;2.63;2.00;;;6.00;99.90;;;;;;4960571;28;20454;-70
2021/03/20 10:49:59;;;;;;;2.70;1.47;;;6.00;99.90;;;;;;4993546;28;20479;-69
2021/03/20 10:52:30;;;;;;;2.83;1.37;;;6.00;99.90;;;;;;4989378;28;20992;-68
2021/03/20 10:54:59;;;;;;;1.53;1.20;;;6.00;99.90;;;;;;4988278;28;20221;-69
2021/03/20 10:57:29;;;;;;;2.27;1.13;;;6.00;99.90;;;;;;4986684;28;20537;-67
2021/03/20 10:59:55;;;;;;;1.93;1.40;;;6.10;99.90;;;;;;4957009;28;20451;-68
2021/03/20 11:02:26;;;;;;;1.93;1.10;;;6.10;99.90;;;;;;4955506;28;20966;-68
2021/03/20 11:04:54;;;;;;;4.20;1.90;;;6.30;99.90;;;;;;4957151;28;20467;-67
2021/03/20 11:07:23;;;;;;;1.53;1.40;;;6.40;99.90;;;;;;4960690;28;20497;-69
2021/03/20 11:09:50;;;;;;;7.40;3.00;;;6.50;99.90;;;;;;4974180;28;20470;-68
2021/03/20 11:12:29;;;;;;;9.80;4.30;;;6.60;99.90;;;;;;4961389;28;20446;-69
2021/03/20 11:14:59;;;;;;;6.23;4.07;;;6.60;99.90;;;;;;4972660;28;21051;-69
2021/03/20 11:17:30;;;;;;;2.43;1.87;;;6.50;99.90;;;;;;4955616;28;20462;-68
2021/03/20 11:20:01;;;;;;;2.27;1.77;;;6.40;99.60;;;;;;4970654;28;20473;-70
2021/03/20 11:22:30;;;;;;;1.97;1.50;;;6.20;99.90;;;;;;4959355;28;20480;-72
2021/03/20 11:25:17;;;;;;;2.00;1.40;;;6.20;99.90;;;;;;4985706;28;20462;-68
2021/03/20 11:27:55;;;;;;;1.97;1.80;;;6.40;99.90;;;;;;4981223;28;20505;-68
2021/03/20 11:30:26;;;;;;;4.57;1.17;;;6.40;99.90;;;;;;4967463;28;20454;-68
2021/03/20 11:32:52;;;;;;;8.30;1.53;;;6.40;99.50;;;;;;4975374;28;20474;-71
2021/03/20 11:35:24;;;;;;;1.30;1.20;;;6.30;99.60;;;;;;4970288;28;20465;-68
2021/03/20 11:37:51;;;;;;;3.00;1.13;;;6.30;99.90;;;;;;4975646;28;20313;-72
2021/03/20 11:40:41;;;;;;;2.57;2.27;;;6.50;99.90;;;;;;4990417;28;20464;-69
2021/03/20 11:43:16;;;;;;;5.50;3.00;;;6.70;99.90;;;;;;4969735;28;20528;-71
2021/03/20 11:45:43;;;;;;;1.33;1.23;;;6.80;99.90;;;;;;4987187;28;20473;-68
2021/03/20 11:48:33;;;;;;;2.33;1.93;;;6.60;99.10;;;;;;4992019;28;20468;-70
2021/03/20 11:51:01;;;;;;;3.17;2.37;;;6.70;99.90;;;;;;4989962;28;20968;-69
2021/03/20 11:53:43;;;;;;;23.47;14.83;;;6.90;99.90;;;;;;4986055;28;20473;-69
2021/03/20 11:56:22;;;;;;;6.90;4.87;;;7.00;99.90;;;;;;4984136;28;20544;-70
2021/03/20 11:59:25;;;;;;;2.33;1.87;;;7.30;99.90;;;;;;4959812;28;20565;-71
2021/03/20 12:01:51;;;;;;;1.53;1.40;;;7.60;99.90;;;;;;4960258;28;20457;-71
2021/03/20 12:04:25;;;;;;;1.30;1.13;;;7.70;99.90;;;;;;4973893;28;20530;-69
2021/03/20 12:06:52;;;;;;;2.00;1.50;;;7.80;99.90;;;;;;4969261;28;20484;-69
2021/03/20 12:09:23;;;;;;;1.87;1.27;;;7.90;99.90;;;;;;4971905;28;20468;-69
2021/03/20 12:11:51;;;;;;;1.00;0.80;;;8.30;99.90;;;;;;4989053;28;20452;-68
2021/03/20 12:14:46;;;;;;;2.83;1.30;;;8.40;99.90;;;;;;4956011;28;20478;-68
2021/03/20 12:17:12;;;;;;;1.23;1.10;;;8.40;99.90;;;;;;4969540;28;20473;-68
2021/03/20 12:19:52;;;;;;;1.20;1.10;;;8.50;99.90;;;;;;4955106;28;20443;-70
2021/03/20 12:22:37;;;;;;;1.93;1.60;;;8.60;99.90;;;;;;4955058;28;20227;-69
2021/03/20 12:25:12;;;;;;;1.63;1.40;;;8.60;99.90;;;;;;4957442;28;20462;-70
2021/03/20 12:27:38;;;;;;;1.63;1.20;;;8.80;99.90;;;;;;4956366;28;20454;-69
2021/03/20 12:30:33;;;;;;;1.60;1.17;;;8.80;99.90;;;;;;4961624;28;20830;-70
2021/03/20 12:33:11;;;;;;;2.00;1.80;;;8.70;99.90;;;;;;4974041;28;20486;-70
2021/03/20 12:35:47;;;;;;;1.40;1.30;;;8.50;99.90;;;;;;4980279;28;20450;-68
2021/03/20 12:38:21;;;;;;;1.50;1.40;;;8.40;99.20;;;;;;4957075;28;20469;-70
2021/03/20 12:40:56;;;;;;;4.93;1.50;;;8.20;99.50;;;;;;4956404;28;21091;-68
2021/03/20 12:43:29;;;;;;;1.83;1.33;;;8.20;99.90;;;;;;4986616;28;20464;-69
2021/03/20 12:46:00;;;;;;;2.20;2.00;;;8.20;99.80;;;;;;4941822;28;20450;-71
2021/03/20 12:48:26;;;;;;;1.43;1.33;;;8.30;99.90;;;;;;4953990;28;20462;-69
2021/03/20 12:51:01;;;;;;;1.83;1.20;;;8.40;99.90;;;;;;4976526;28;20504;-69
2021/03/20 12:53:27;;;;;;;2.47;1.43;;;8.50;99.40;;;;;;4959756;28;20477;-70
2021/03/20 12:55:53;;;;;;;2.60;1.73;;;8.50;99.20;;;;;;4992101;28;20477;-69
2021/03/20 12:58:19;;;;;;;3.03;2.17;;;8.50;99.00;;;;;;4992177;28;20967;-69
2021/03/20 13:00:45;;;;;;;3.80;1.67;;;8.20;98.20;;;;;;4952497;28;20448;-69
2021/03/20 13:03:10;;;;;;;2.37;1.43;;;8.10;98.10;;;;;;4979778;28;20225;-70
2021/03/20 13:05:38;;;;;;;2.80;2.27;;;8.00;98.50;;;;;;4973223;28;20226;-70
2021/03/20 13:08:05;;;;;;;1.70;1.30;;;8.00;98.40;;;;;;4973472;28;20223;-70
2021/03/20 13:10:31;;;;;;;2.13;1.50;;;8.00;98.80;;;;;;4974735;28;20468;-68
2021/03/20 13:12:57;;;;;;;16.80;5.37;;;8.20;99.20;;;;;;4979440;28;20469;-69
2021/03/20 13:15:24;;;;;;;8.00;4.10;;;8.30;99.70;;;;;;4991612;28;20253;-69
2021/03/20 13:17:50;;;;;;;3.20;2.00;;;8.40;99.90;;;;;;4991831;28;20540;-70
2021/03/20 13:20:19;;;;;;;4.40;2.17;;;8.50;99.90;;;;;;4992510;28;20449;-69
2021/03/20 13:22:45;;;;;;;2.83;1.20;;;8.60;99.90;;;;;;4974893;28;20834;-70
2021/03/20 13:25:18;;;;;;;2.80;1.30;;;8.70;99.70;;;;;;4964363;28;20521;-70
2021/03/20 13:27:44;;;;;;;1.37;1.27;;;8.80;99.50;;;;;;4984129;28;20455;-69
2021/03/20 13:30:10;;;;;;;1.90;1.40;;;8.90;99.50;;;;;;4954687;28;21048;-69
2021/03/20 13:32:35;;;;;;;2.10;1.60;;;8.90;99.30;;;;;;4965698;28;20313;-69
2021/03/20 13:35:02;;;;;;;1.83;1.60;;;8.70;97.90;;;;;;4958734;28;20562;-70
2021/03/20 13:37:28;;;;;;;1.93;1.60;;;8.50;98.00;;;;;;4966901;28;20226;-69
2021/03/20 13:39:54;;;;;;;3.10;1.80;;;8.40;98.10;;;;;;4974282;28;20461;-70